createdAt,value
2022-12-01T00:01:15.887Z,77238.47
2022-12-01T00:03:43.953Z,77242.56
2022-12-01T00:06:15.588Z,77240.53
2022-12-01T00:09:04.651Z,77240.53
2022-12-01T00:11:33.485Z,77238.47
2022-12-01T00:14:01.464Z,77232.38
2022-12-01T00:16:30.168Z,77238.47
2022-12-01T00:18:58.551Z,77248.69
2022-12-01T00:21:27.711Z,77240.53
2022-12-01T00:23:57.550Z,77244.59
2022-12-01T00:26:26.900Z,77248.69
2022-12-01T00:28:57.924Z,77244.59
2022-12-01T00:31:26.713Z,77246.63
2022-12-01T00:33:54.692Z,77248.69
2022-12-01T00:36:23.200Z,77250.72
2022-12-01T00:38:53.565Z,77248.69
2022-12-01T00:41:21.848Z,77256.84
2022-12-01T00:43:49.672Z,77260.91
2022-12-01T00:46:19.394Z,77262.97
2022-12-01T00:48:47.343Z,77262.97
2022-12-01T00:51:15.139Z,77267.03
2022-12-01T00:53:43.066Z,77273.16
2022-12-01T00:56:10.901Z,77269.06
2022-12-01T00:58:38.720Z,77277.22
2022-12-01T01:01:07.036Z,77277.22
2022-12-01T01:03:36.204Z,77279.28
2022-12-01T01:06:09.077Z,77277.22
2022-12-01T01:08:37.848Z,77279.28
2022-12-01T01:11:07.088Z,77277.22
2022-12-01T01:13:35.751Z,77281.31
2022-12-01T01:16:06.118Z,77281.31
2022-12-01T01:18:34.026Z,77275.19
2022-12-01T01:21:06.034Z,77289.47
2022-12-01T01:23:34.188Z,77293.53
2022-12-01T01:26:03.152Z,77297.63
2022-12-01T01:28:31.334Z,77289.47
2022-12-01T01:30:59.604Z,77293.53
2022-12-01T01:33:27.402Z,77301.72
2022-12-01T01:35:55.222Z,77313.94
2022-12-01T01:38:24.394Z,77315.97
2022-12-01T01:40:52.183Z,77328.22
2022-12-01T01:43:40.908Z,77315.97
2022-12-01T01:46:08.907Z,77315.97
2022-12-01T01:48:39.509Z,77311.91
2022-12-01T01:51:08.883Z,77322.09
2022-12-01T01:53:38.812Z,77326.19
2022-12-01T01:56:09.299Z,77324.13
2022-12-01T01:58:39.072Z,77330.25
2022-12-01T02:01:08.048Z,77326.19
2022-12-01T02:03:38.415Z,77322.09
2022-12-01T02:06:07.407Z,77326.19
2022-12-01T02:08:38.179Z,77322.09
2022-12-01T02:11:23.023Z,77336.38
2022-12-01T02:13:59.601Z,77338.41
2022-12-01T02:16:39.502Z,77338.41
2022-12-01T02:19:31.005Z,77338.41
2022-12-01T02:22:14.131Z,77336.38
2022-12-01T02:24:53.940Z,77342.50
2022-12-01T02:27:34.775Z,77346.56
2022-12-01T02:30:11.289Z,77338.41
2022-12-01T02:33:03.375Z,77340.47
2022-12-01T02:35:36.998Z,77334.34
2022-12-01T02:38:13.486Z,77334.34
2022-12-01T02:40:46.930Z,77334.34
2022-12-01T02:43:20.339Z,77330.25
2022-12-01T02:45:53.111Z,77326.19
2022-12-01T02:48:27.765Z,77322.09
2022-12-01T02:50:59.287Z,77322.09
2022-12-01T02:53:27.347Z,77322.09
2022-12-01T02:55:58.827Z,77326.19
2022-12-01T02:58:26.672Z,77334.34
2022-12-01T03:01:07.552Z,77332.31
2022-12-01T03:03:59.146Z,77334.34
2022-12-01T03:06:40.805Z,77330.25
2022-12-01T03:09:18.030Z,77330.25
2022-12-01T03:11:51.968Z,77338.41
2022-12-01T03:14:33.276Z,77334.34
2022-12-01T03:17:05.828Z,77334.34
2022-12-01T03:19:38.592Z,77336.38
2022-12-01T03:22:11.391Z,77336.38
2022-12-01T03:24:41.258Z,77334.34
2022-12-01T03:27:12.146Z,77342.50
2022-12-01T03:29:44.422Z,77344.53
2022-12-01T03:32:19.449Z,77338.41
2022-12-01T03:34:55.270Z,77338.41
2022-12-01T03:37:31.782Z,77342.50
2022-12-01T03:40:01.539Z,77342.50
2022-12-01T03:42:36.808Z,77344.53
2022-12-01T03:45:08.519Z,77342.50
2022-12-01T03:47:37.684Z,77354.72
2022-12-01T03:50:13.297Z,77352.69
2022-12-01T03:52:48.081Z,77350.66
2022-12-01T03:55:20.647Z,77350.66
2022-12-01T03:57:55.308Z,77350.66
2022-12-01T04:00:24.730Z,77346.56
2022-12-01T04:02:56.657Z,77360.84
2022-12-01T04:05:26.497Z,77362.88
2022-12-01T04:07:54.946Z,77371.06
2022-12-01T04:10:23.007Z,77379.22
2022-12-01T04:12:49.873Z,77366.97
2022-12-01T04:15:18.323Z,77375.13
2022-12-01T04:17:46.240Z,77377.16
2022-12-01T04:20:17.996Z,77366.97
2022-12-01T04:22:47.252Z,77375.13
2022-12-01T04:25:15.040Z,77383.28
2022-12-01T04:27:42.848Z,77371.06
2022-12-01T04:30:11.872Z,77375.13
2022-12-01T04:32:40.584Z,77377.16
2022-12-01T04:35:09.889Z,77371.06
2022-12-01T04:37:37.889Z,77364.94
2022-12-01T04:40:08.641Z,77381.25
2022-12-01T04:42:36.712Z,77387.38
2022-12-01T04:45:05.019Z,77391.44
2022-12-01T04:47:32.859Z,77403.69
2022-12-01T04:50:00.691Z,77395.53
2022-12-01T04:52:33.744Z,77391.44
2022-12-01T04:55:03.468Z,77397.56
2022-12-01T04:57:32.629Z,77389.41
2022-12-01T05:00:00.443Z,77383.28
2022-12-01T05:02:28.358Z,77387.38
2022-12-01T05:04:56.247Z,77385.31
2022-12-01T05:07:24.091Z,77397.56
2022-12-01T05:09:52.118Z,77391.44
2022-12-01T05:12:20.474Z,77399.59
2022-12-01T05:14:49.741Z,77401.66
2022-12-01T05:17:17.525Z,77403.69
2022-12-01T05:20:02.765Z,77409.81
2022-12-01T05:23:03.361Z,77407.75
2022-12-01T05:25:18.618Z,77415.91
2022-12-01T05:27:46.417Z,77415.91
2022-12-01T05:30:15.759Z,77415.91
2022-12-01T05:32:43.593Z,77411.84
2022-12-01T05:35:11.410Z,77420.00
2022-12-01T05:37:39.236Z,77420.00
2022-12-01T05:40:08.438Z,77415.91
2022-12-01T05:42:36.276Z,77420.00
2022-12-01T05:45:04.428Z,77420.00
2022-12-01T05:47:33.654Z,77420.00
2022-12-01T05:50:05.431Z,77417.97
2022-12-01T05:52:35.363Z,77424.09
2022-12-01T05:55:03.851Z,77422.03
2022-12-01T05:57:32.285Z,77424.09
2022-12-01T06:00:00.458Z,77424.09
2022-12-01T06:02:28.356Z,77432.25
2022-12-01T06:04:57.652Z,77436.31
2022-12-01T06:07:26.068Z,77430.19
2022-12-01T06:09:54.138Z,77432.25
2022-12-01T06:12:21.990Z,77436.31
2022-12-01T06:14:49.874Z,77438.34
2022-12-01T06:17:17.825Z,77440.41
2022-12-01T06:19:47.822Z,77436.31
2022-12-01T06:22:17.365Z,77454.69
2022-12-01T06:24:45.195Z,77456.72
2022-12-01T06:27:13.028Z,77456.72
2022-12-01T06:29:42.364Z,77458.75
2022-12-01T06:32:10.444Z,77458.75
2022-12-01T06:34:38.319Z,77468.94
2022-12-01T06:37:06.172Z,77464.88
2022-12-01T06:39:35.323Z,77468.94
2022-12-01T06:42:03.218Z,77468.94
2022-12-01T06:44:31.109Z,77475.06
2022-12-01T06:46:58.915Z,77479.16
2022-12-01T06:49:26.671Z,77464.88
2022-12-01T06:51:54.522Z,77462.84
2022-12-01T06:54:22.600Z,77473.03
2022-12-01T06:56:51.992Z,77464.88
2022-12-01T06:59:20.861Z,77485.28
2022-12-01T07:01:49.124Z,77485.28
2022-12-01T07:04:16.992Z,77479.16
2022-12-01T07:06:44.880Z,77481.19
2022-12-01T07:09:12.664Z,77481.19
2022-12-01T07:11:40.554Z,77485.28
2022-12-01T07:14:17.339Z,77481.19
2022-12-01T07:16:45.173Z,77481.19
2022-12-01T07:19:13.124Z,77501.59
2022-12-01T07:21:41.017Z,77505.66
2022-12-01T07:24:09.261Z,77521.97
2022-12-01T07:26:37.105Z,77513.81
2022-12-01T07:29:05.230Z,77509.75
2022-12-01T07:31:34.385Z,77513.81
2022-12-01T07:34:02.206Z,77509.75
2022-12-01T07:36:29.987Z,77497.50
2022-12-01T07:38:57.815Z,77493.44
2022-12-01T07:41:25.897Z,77485.28
2022-12-01T07:43:53.704Z,77501.59
2022-12-01T07:46:24.335Z,77501.59
2022-12-01T07:48:54.270Z,77495.47
2022-12-01T07:51:23.509Z,77485.28
2022-12-01T07:53:52.191Z,77481.19
2022-12-01T07:56:21.494Z,77479.16
2022-12-01T07:58:49.608Z,77481.19
2022-12-01T08:01:19.540Z,77481.19
2022-12-01T08:03:49.270Z,77473.03
2022-12-01T08:06:19.798Z,77468.94
2022-12-01T08:08:48.614Z,77464.88
2022-12-01T08:11:18.408Z,77473.03
2022-12-01T08:13:46.531Z,77473.03
2022-12-01T08:16:16.927Z,77464.88
2022-12-01T08:18:45.339Z,77466.91
2022-12-01T08:21:15.014Z,77452.63
2022-12-01T08:23:44.698Z,77460.78
2022-12-01T08:26:14.838Z,77460.78
2022-12-01T08:28:43.263Z,77450.59
2022-12-01T08:31:16.150Z,77456.72
2022-12-01T08:33:44.180Z,77460.78
2022-12-01T08:36:12.016Z,77456.72
2022-12-01T08:38:39.948Z,77458.75
2022-12-01T08:41:10.148Z,77454.69
2022-12-01T08:46:29.007Z,77452.63
2022-12-01T08:48:57.858Z,77458.75
2022-12-01T08:51:26.736Z,77460.78
2022-12-01T08:53:56.741Z,77468.94
2022-12-01T08:56:28.358Z,77464.88
2022-12-01T08:58:56.565Z,77464.88
2022-12-01T09:01:25.743Z,77452.63
2022-12-01T09:04:05.442Z,77440.41
2022-12-01T09:06:34.854Z,77428.16
2022-12-01T09:09:03.278Z,77434.28
2022-12-01T09:11:32.466Z,77415.91
2022-12-01T09:14:01.020Z,77411.84
2022-12-01T09:16:28.924Z,77420.00
2022-12-01T09:18:57.085Z,77407.75
2022-12-01T09:21:27.379Z,77395.53
2022-12-01T09:23:55.515Z,77399.59
2022-12-01T09:26:23.901Z,77409.81
2022-12-01T09:28:55.592Z,77407.75
2022-12-01T09:31:24.433Z,77417.97
2022-12-01T09:33:57.067Z,77411.84
2022-12-01T09:36:25.039Z,77409.81
2022-12-01T09:38:53.070Z,77420.00
2022-12-01T09:41:24.786Z,77413.88
2022-12-01T09:44:06.067Z,77420.00
2022-12-01T09:46:38.180Z,77411.84
2022-12-01T09:49:13.695Z,77415.91
2022-12-01T09:51:41.542Z,77424.09
2022-12-01T09:54:11.706Z,77411.84
2022-12-01T09:56:44.276Z,77413.88
2022-12-01T09:59:19.737Z,77407.75
2022-12-01T10:02:00.442Z,77407.75
2022-12-01T10:04:32.504Z,77399.59
2022-12-01T10:07:03.028Z,77401.66
2022-12-01T10:09:42.163Z,77397.56
2022-12-01T10:12:16.770Z,77403.69
2022-12-01T10:14:49.020Z,77407.75
2022-12-01T10:17:29.362Z,77391.44
2022-12-01T10:20:04.183Z,77381.25
2022-12-01T10:23:09.256Z,77389.41
2022-12-01T10:25:43.555Z,77397.56
2022-12-01T10:28:32.812Z,77369.00
2022-12-01T10:31:09.195Z,77366.97
2022-12-01T10:33:45.396Z,77354.72
2022-12-01T10:36:13.348Z,77354.72
2022-12-01T10:38:41.160Z,77350.66
2022-12-01T10:41:15.501Z,77338.41
2022-12-01T10:43:46.929Z,77342.50
2022-12-01T10:46:24.506Z,77346.56
2022-12-01T10:48:57.409Z,77346.56
2022-12-01T10:51:26.680Z,77344.53
2022-12-01T10:54:00.188Z,77328.22
2022-12-01T10:56:28.572Z,77330.25
2022-12-01T10:58:59.233Z,77328.22
2022-12-01T11:01:32.049Z,77318.03
2022-12-01T11:04:04.250Z,77320.06
2022-12-01T11:06:33.182Z,77313.94
2022-12-01T11:09:03.869Z,77313.94
2022-12-01T11:11:37.632Z,77336.38
2022-12-01T11:14:08.322Z,77322.09
2022-12-01T11:16:41.686Z,77315.97
2022-12-01T11:19:27.274Z,77326.19
2022-12-01T11:21:57.659Z,77322.09
2022-12-01T11:24:41.836Z,77322.09
2022-12-01T11:27:17.723Z,77315.97
2022-12-01T11:29:49.443Z,77324.13
2022-12-01T11:32:22.411Z,77322.09
2022-12-01T11:34:53.446Z,77320.06
2022-12-01T11:37:23.886Z,77305.78
2022-12-01T11:39:53.288Z,77301.72
2022-12-01T11:42:25.585Z,77303.75
2022-12-01T11:44:56.042Z,77307.81
2022-12-01T11:47:26.720Z,77313.94
2022-12-01T11:49:57.567Z,77309.88
2022-12-01T11:52:29.965Z,77309.88
2022-12-01T11:55:05.557Z,77297.63
2022-12-01T11:57:38.440Z,77305.78
2022-12-01T12:00:14.706Z,77305.78
2022-12-01T12:02:56.803Z,77309.88
2022-12-01T12:05:50.681Z,77309.88
2022-12-01T12:08:30.294Z,77293.53
2022-12-01T12:11:10.344Z,77313.94
2022-12-01T12:14:06.319Z,77318.03
2022-12-01T12:16:49.517Z,77313.94
2022-12-01T12:20:00.091Z,77297.63
2022-12-01T12:22:31.734Z,77301.72
2022-12-01T12:25:17.449Z,77293.53
2022-12-01T12:27:56.292Z,77305.78
2022-12-01T12:30:26.865Z,77293.53
2022-12-01T12:33:16.641Z,77297.63
2022-12-01T12:35:54.497Z,77289.47
2022-12-01T12:38:35.820Z,77293.53
2022-12-01T12:41:17.829Z,77283.34
2022-12-01T12:43:56.711Z,77281.31
2022-12-01T12:46:33.256Z,77287.44
2022-12-01T12:49:20.193Z,77289.47
2022-12-01T12:51:56.778Z,77287.44
2022-12-01T12:54:31.740Z,77289.47
2022-12-01T12:57:04.266Z,77289.47
2022-12-01T12:59:40.369Z,77297.63
2022-12-01T13:02:14.725Z,77305.78
2022-12-01T13:04:49.068Z,77305.78
2022-12-01T13:07:33.196Z,77318.03
2022-12-01T13:10:09.204Z,77303.75
2022-12-01T13:12:42.980Z,77315.97
2022-12-01T13:15:17.008Z,77311.91
2022-12-01T13:17:49.268Z,77313.94
2022-12-01T13:20:20.072Z,77318.03
2022-12-01T13:22:50.087Z,77322.09
2022-12-01T13:25:26.473Z,77318.03
2022-12-01T13:27:56.422Z,77324.13
2022-12-01T13:30:26.759Z,77334.34
2022-12-01T13:33:02.004Z,77334.34
2022-12-01T13:35:32.996Z,77338.41
2022-12-01T13:38:25.877Z,77326.19
2022-12-01T13:41:29.339Z,77342.50
2022-12-01T13:44:03.690Z,77336.38
2022-12-01T13:46:50.352Z,77344.53
2022-12-01T13:49:39.721Z,77350.66
2022-12-01T13:52:29.619Z,77338.41
2022-12-01T13:55:22.776Z,77342.50
2022-12-01T13:58:13.138Z,77342.50
2022-12-01T14:00:43.092Z,77352.69
2022-12-01T14:03:38.550Z,77350.66
2022-12-01T14:06:21.928Z,77348.63
2022-12-01T14:08:51.111Z,77342.50
2022-12-01T14:11:22.299Z,77350.66
2022-12-01T14:13:55.187Z,77342.50
2022-12-01T14:16:25.639Z,77334.34
2022-12-01T14:18:56.764Z,77342.50
2022-12-01T14:21:47.066Z,77342.50
2022-12-01T14:24:23.826Z,77338.41
2022-12-01T14:26:53.676Z,77338.41
2022-12-01T14:29:35.528Z,77346.56
2022-12-01T14:32:20.211Z,77352.69
2022-12-01T14:34:52.631Z,77362.88
2022-12-01T14:37:23.247Z,77358.81
2022-12-01T14:39:57.766Z,77356.78
2022-12-01T14:42:50.989Z,77362.88
2022-12-01T14:45:26.614Z,77350.66
2022-12-01T14:48:03.975Z,77358.81
2022-12-01T14:50:45.017Z,77366.97
2022-12-01T14:53:24.213Z,77366.97
2022-12-01T14:55:57.295Z,77360.84
2022-12-01T14:58:28.731Z,77350.66
2022-12-01T15:01:01.811Z,77362.88
2022-12-01T15:03:36.742Z,77366.97
2022-12-01T15:06:04.837Z,77362.88
2022-12-01T15:08:53.291Z,77369.00
2022-12-01T15:11:26.452Z,77371.06
2022-12-01T15:13:56.046Z,77389.41
2022-12-01T15:16:25.602Z,77379.22
2022-12-01T15:18:55.272Z,77387.38
2022-12-01T15:21:25.469Z,77387.38
2022-12-01T15:23:58.847Z,77387.38
2022-12-01T15:26:29.556Z,77383.28
2022-12-01T15:29:15.359Z,77387.38
2022-12-01T15:31:44.753Z,77393.47
2022-12-01T15:34:17.843Z,77385.31
2022-12-01T15:36:46.374Z,77391.44
2022-12-01T15:39:17.576Z,77387.38
2022-12-01T15:41:47.975Z,77379.22
2022-12-01T15:44:22.197Z,77387.38
2022-12-01T15:46:49.971Z,77385.31
2022-12-01T15:49:21.015Z,77375.13
2022-12-01T15:51:51.100Z,77377.16
2022-12-01T15:54:21.800Z,77379.22
2022-12-01T15:56:53.443Z,77381.25
2022-12-01T15:59:28.338Z,77375.13
2022-12-01T16:01:56.910Z,77375.13
2022-12-01T16:04:28.147Z,77371.06
2022-12-01T16:06:59.180Z,77383.28
2022-12-01T16:09:31.399Z,77371.06
2022-12-01T16:12:23.236Z,77375.13
2022-12-01T16:14:54.710Z,77369.00
2022-12-01T16:17:23.501Z,77371.06
2022-12-01T16:20:17.820Z,77371.06
2022-12-01T16:22:47.120Z,77379.22
2022-12-01T16:25:21.929Z,77383.28
2022-12-01T16:27:54.245Z,77379.22
2022-12-01T16:30:24.688Z,77379.22
2022-12-01T16:33:00.835Z,77377.16
2022-12-01T16:35:32.075Z,77375.13
2022-12-01T16:38:00.957Z,77377.16
2022-12-01T16:40:28.907Z,77383.28
2022-12-01T16:42:57.011Z,77381.25
2022-12-01T16:45:26.778Z,77379.22
2022-12-01T16:47:54.718Z,77387.38
2022-12-01T16:50:23.121Z,77387.38
2022-12-01T16:52:52.254Z,77383.28
2022-12-01T16:55:29.195Z,77385.31
2022-12-01T16:57:57.028Z,77375.13
2022-12-01T17:00:25.596Z,77371.06
2022-12-01T17:02:53.689Z,77366.97
2022-12-01T17:05:21.601Z,77375.13
2022-12-01T17:07:49.777Z,77385.31
2022-12-01T17:10:19.158Z,77383.28
2022-12-01T17:12:47.010Z,77385.31
2022-12-01T17:15:14.889Z,77391.44
2022-12-01T17:17:42.994Z,77399.59
2022-12-01T17:20:12.058Z,77387.38
2022-12-01T17:22:39.986Z,77387.38
2022-12-01T17:25:09.691Z,77379.22
2022-12-01T17:27:39.591Z,77371.06
2022-12-01T17:30:08.977Z,77371.06
2022-12-01T17:32:36.825Z,77377.16
2022-12-01T17:35:04.893Z,77377.16
2022-12-01T17:37:32.870Z,77379.22
2022-12-01T17:40:00.663Z,77383.28
2022-12-01T17:42:28.451Z,77387.38
2022-12-01T17:44:57.687Z,77379.22
2022-12-01T17:47:25.743Z,77383.28
2022-12-01T17:49:53.580Z,77379.22
2022-12-01T17:52:25.446Z,77379.22
2022-12-01T17:54:56.498Z,77383.28
2022-12-01T17:57:24.455Z,77379.22
2022-12-01T17:59:52.247Z,77383.28
2022-12-01T18:02:21.479Z,77379.22
2022-12-01T18:04:49.852Z,77377.16
2022-12-01T18:07:17.930Z,77381.25
2022-12-01T18:09:45.766Z,77379.22
2022-12-01T18:12:13.611Z,77383.28
2022-12-01T18:14:41.434Z,77385.31
2022-12-01T18:17:09.230Z,77381.25
2022-12-01T18:19:38.594Z,77375.13
2022-12-01T18:22:06.387Z,77379.22
2022-12-01T18:24:34.185Z,77375.13
2022-12-01T18:27:02.022Z,77375.13
2022-12-01T18:29:29.944Z,77383.28
2022-12-01T18:31:59.780Z,77385.31
2022-12-01T18:34:29.454Z,77383.28
2022-12-01T18:36:58.863Z,77383.28
2022-12-01T18:39:26.692Z,77383.28
2022-12-01T18:41:54.523Z,77385.31
2022-12-01T18:44:22.341Z,77379.22
2022-12-01T18:46:50.298Z,77381.25
2022-12-01T18:49:18.370Z,77379.22
2022-12-01T18:51:46.288Z,77375.13
2022-12-01T18:54:16.370Z,77375.13
2022-12-01T18:56:44.399Z,77375.13
2022-12-01T18:59:13.567Z,77371.06
2022-12-01T19:01:44.499Z,77377.16
2022-12-01T19:04:15.606Z,77369.00
2022-12-01T19:06:45.876Z,77362.88
2022-12-01T19:09:16.486Z,77366.97
2022-12-01T19:11:44.669Z,77371.06
2022-12-01T19:14:15.671Z,77377.16
2022-12-01T19:16:43.927Z,77381.25
2022-12-01T19:19:11.868Z,77373.09
2022-12-01T19:21:39.735Z,77379.22
2022-12-01T19:24:08.182Z,77377.16
2022-12-01T19:26:38.649Z,77375.13
2022-12-01T19:29:06.485Z,77379.22
2022-12-01T19:31:34.425Z,77387.38
2022-12-01T19:34:03.649Z,77389.41
2022-12-01T19:36:34.282Z,77391.44
2022-12-01T19:39:07.228Z,77391.44
2022-12-01T19:41:36.752Z,77383.28
2022-12-01T19:44:04.711Z,77385.31
2022-12-01T19:46:32.508Z,77387.38
2022-12-01T19:49:02.015Z,77387.38
2022-12-01T19:51:32.472Z,77383.28
2022-12-01T19:54:00.296Z,77391.44
2022-12-01T19:56:29.058Z,77389.41
2022-12-01T19:58:59.234Z,77387.38
2022-12-01T20:01:27.569Z,77395.53
2022-12-01T20:03:56.259Z,77403.69
2022-12-01T20:06:25.771Z,77399.59
2022-12-01T20:08:55.526Z,77401.66
2022-12-01T20:11:23.724Z,77411.84
2022-12-01T20:13:52.097Z,77422.03
2022-12-01T20:16:23.480Z,77415.91
2022-12-01T20:18:52.174Z,77415.91
2022-12-01T20:21:22.151Z,77422.03
2022-12-01T20:23:51.775Z,77415.91
2022-12-01T20:26:24.895Z,77415.91
2022-12-01T20:28:55.422Z,77411.84
2022-12-01T20:31:26.391Z,77411.84
2022-12-01T20:33:56.887Z,77395.53
2022-12-01T20:36:24.865Z,77395.53
2022-12-01T20:38:52.813Z,77391.44
2022-12-01T20:41:20.988Z,77391.44
2022-12-01T20:43:48.886Z,77395.53
2022-12-01T20:46:17.496Z,77399.59
2022-12-01T20:48:46.958Z,77403.69
2022-12-01T20:51:15.838Z,77399.59
2022-12-01T20:53:59.504Z,77403.69
2022-12-01T20:56:32.445Z,77399.59
2022-12-01T20:59:00.914Z,77403.69
2022-12-01T21:01:28.943Z,77407.75
2022-12-01T21:03:58.276Z,77415.91
2022-12-01T21:06:26.490Z,77413.88
2022-12-01T21:08:54.295Z,77424.09
2022-12-01T21:11:45.532Z,77415.91
2022-12-01T21:14:16.580Z,77415.91
2022-12-01T21:16:48.230Z,77428.16
2022-12-01T21:19:22.937Z,77432.25
2022-12-01T21:21:50.866Z,77436.31
2022-12-01T21:24:20.273Z,77440.41
2022-12-01T21:26:49.734Z,77428.16
2022-12-01T21:29:23.039Z,77424.09
2022-12-01T21:31:53.364Z,77432.25
2022-12-01T21:34:24.950Z,77430.19
2022-12-01T21:36:55.107Z,77432.25
2022-12-01T21:39:25.157Z,77436.31
2022-12-01T21:41:55.972Z,77426.13
2022-12-01T21:44:29.403Z,77432.25
2022-12-01T21:46:58.871Z,77428.16
2022-12-01T21:49:35.441Z,77422.03
2022-12-01T21:52:07.533Z,77432.25
2022-12-01T21:54:36.050Z,77436.31
2022-12-01T21:57:16.003Z,77428.16
2022-12-01T21:59:43.834Z,77446.50
2022-12-01T22:02:33.561Z,77432.25
2022-12-01T22:05:03.138Z,77434.28
2022-12-01T22:07:30.984Z,77438.34
2022-12-01T22:10:00.830Z,77432.25
2022-12-01T22:12:31.999Z,77440.41
2022-12-01T22:15:01.989Z,77436.31
2022-12-01T22:17:30.933Z,77440.41
2022-12-01T22:20:02.310Z,77446.50
2022-12-01T22:22:32.721Z,77440.41
2022-12-01T22:25:03.025Z,77430.19
2022-12-01T22:27:33.212Z,77432.25
2022-12-01T22:30:03.523Z,77436.31
2022-12-01T22:32:41.337Z,77440.41
2022-12-01T22:35:32.458Z,77430.19
2022-12-01T22:38:35.824Z,77430.19
2022-12-01T22:41:06.023Z,77434.28
2022-12-01T22:43:43.392Z,77436.31
2022-12-01T22:46:33.185Z,77444.47
2022-12-01T22:49:03.638Z,77440.41
2022-12-01T22:51:42.186Z,77430.19
2022-12-01T22:54:32.697Z,77432.25
2022-12-01T22:57:06.297Z,77436.31
2022-12-01T22:59:36.718Z,77424.09
2022-12-01T23:02:19.316Z,77430.19
2022-12-01T23:04:50.017Z,77432.25
2022-12-01T23:07:30.221Z,77440.41
2022-12-01T23:10:07.976Z,77432.25
2022-12-01T23:12:37.594Z,77436.31
2022-12-01T23:15:21.092Z,77426.13
2022-12-01T23:17:49.023Z,77428.16
2022-12-01T23:20:37.696Z,77436.31
2022-12-01T23:23:09.329Z,77432.25
2022-12-01T23:25:38.520Z,77436.31
2022-12-01T23:28:09.118Z,77440.41
2022-12-01T23:30:38.507Z,77440.41
2022-12-01T23:33:17.860Z,77436.31
2022-12-01T23:35:48.845Z,77444.47
2022-12-01T23:38:19.596Z,77434.28
2022-12-01T23:40:50.296Z,77432.25
2022-12-01T23:43:21.567Z,77440.41
2022-12-01T23:45:52.157Z,77434.28
2022-12-01T23:48:23.303Z,77428.16
2022-12-01T23:50:53.818Z,77438.34
2022-12-01T23:53:28.021Z,77436.31
2022-12-01T23:56:01.222Z,77432.25
2022-12-01T23:58:29.575Z,77428.16
